createdAt,value
2017-06-01T00:01:20.754Z,0
2017-06-01T00:03:44.934Z,0
2017-06-01T00:06:00.684Z,0
2017-06-01T00:08:16.476Z,0
2017-06-01T00:10:40.702Z,0
2017-06-01T00:12:56.434Z,0
2017-06-01T00:15:20.675Z,0
2017-06-01T00:17:44.859Z,0
2017-06-01T00:20:09.038Z,0
2017-06-01T00:24:34.655Z,0
2017-06-01T00:26:58.868Z,0
2017-06-01T00:29:23.029Z,0
2017-06-01T00:31:47.237Z,0
2017-06-01T00:34:11.415Z,0
2017-06-01T00:38:37.009Z,0
2017-06-01T00:41:01.224Z,0
2017-06-01T00:43:08.573Z,0
2017-06-01T00:45:32.805Z,0
2017-06-01T00:47:56.987Z,0
2017-06-01T00:50:21.165Z,0
2017-06-01T00:52:45.353Z,0
2017-06-01T00:55:09.543Z,0
2017-06-01T00:57:33.717Z,0
2017-06-01T00:59:57.898Z,0
2017-06-01T01:02:22.097Z,0
2017-06-01T01:04:37.832Z,0
2017-06-01T01:07:01.953Z,0
2017-06-01T01:09:26.135Z,0
2017-06-01T01:11:50.330Z,0
2017-06-01T01:14:14.507Z,0
2017-06-01T01:16:38.695Z,0
2017-06-01T01:19:02.869Z,0
2017-06-01T01:21:27.069Z,0
2017-06-01T01:23:51.243Z,0
2017-06-01T01:26:15.429Z,0
2017-06-01T01:28:31.180Z,0
2017-06-01T01:30:41.113Z,0
2017-06-01T01:33:05.247Z,0
2017-06-01T01:35:29.427Z,0
2017-06-01T01:41:47.791Z,0
2017-06-01T01:44:11.890Z,0
2017-06-01T01:46:35.976Z,0
2017-06-01T01:49:00.059Z,0
2017-06-01T01:51:24.130Z,0
2017-06-01T01:53:39.818Z,0
2017-06-01T01:56:03.892Z,0
2017-06-01T01:58:28.003Z,0
2017-06-01T02:00:52.065Z,0
2017-06-01T02:03:07.713Z,0
2017-06-01T02:05:31.829Z,0
2017-06-01T02:07:55.912Z,0
2017-06-01T02:10:19.997Z,0
2017-06-01T02:12:44.094Z,0
2017-06-01T02:15:08.160Z,0
2017-06-01T02:17:23.793Z,0
2017-06-01T02:19:47.834Z,0
2017-06-01T02:22:03.466Z,0
2017-06-01T02:24:19.145Z,0
2017-06-01T02:26:43.275Z,0
2017-06-01T02:28:58.933Z,0
2017-06-01T02:31:23.036Z,0
2017-06-01T02:33:32.968Z,0
2017-06-01T02:35:57.070Z,0
2017-06-01T02:38:21.144Z,0
2017-06-01T02:40:45.232Z,0
2017-06-01T02:43:00.800Z,0
2017-06-01T02:45:24.873Z,0
2017-06-01T02:47:26.457Z,0
2017-06-01T02:51:51.845Z,0
2017-06-01T02:54:15.863Z,4
2017-06-01T02:58:41.291Z,4
2017-06-01T03:01:05.374Z,4
2017-06-01T03:03:29.446Z,8
2017-06-01T03:05:53.540Z,8
2017-06-01T03:08:17.638Z,12
2017-06-01T03:10:41.696Z,16
2017-06-01T03:15:07.173Z,28
2017-06-01T03:17:31.309Z,36
2017-06-01T03:19:55.390Z,48
2017-06-01T03:22:11.078Z,60
2017-06-01T03:24:35.157Z,68
2017-06-01T03:26:50.797Z,92
2017-06-01T03:29:14.824Z,112
2017-06-01T03:31:38.960Z,128
2017-06-01T03:34:02.998Z,160
2017-06-01T03:36:27.065Z,192
2017-06-01T03:38:51.170Z,236
2017-06-01T03:41:15.239Z,284
2017-06-01T03:43:39.309Z,332
2017-06-01T03:46:03.403Z,392
2017-06-01T03:48:27.483Z,460
2017-06-01T03:52:52.963Z,580
2017-06-01T03:55:17.007Z,640
2017-06-01T03:59:34.013Z,756
2017-06-01T04:01:58.108Z,804
2017-06-01T04:04:22.184Z,904
2017-06-01T04:06:46.284Z,1008
2017-06-01T04:09:10.360Z,1096
2017-06-01T04:11:34.433Z,1196
2017-06-01T04:13:58.514Z,1284
2017-06-01T04:16:22.607Z,1424
2017-06-01T04:18:38.199Z,1540
2017-06-01T04:21:02.279Z,1728
2017-06-01T04:23:26.361Z,2112
2017-06-01T04:25:50.445Z,2700
2017-06-01T04:28:14.662Z,2852
2017-06-01T04:32:41.761Z,3208
2017-06-01T04:35:06.430Z,3336
2017-06-01T04:37:22.666Z,3568
2017-06-01T04:39:47.594Z,3740
2017-06-01T04:42:12.732Z,3900
2017-06-01T04:44:37.975Z,4080
2017-06-01T04:47:03.313Z,4252
2017-06-01T04:49:28.768Z,4404
2017-06-01T04:51:54.299Z,4492
2017-06-01T04:54:20.049Z,4720
2017-06-01T04:56:28.742Z,4836
2017-06-01T04:58:37.582Z,4840
2017-06-01T05:01:03.465Z,4860
2017-06-01T05:03:29.401Z,4820
2017-06-01T05:05:46.896Z,5456
2017-06-01T05:08:12.987Z,5436
2017-06-01T05:10:39.158Z,5200
2017-06-01T05:13:07.095Z,5500
2017-06-01T05:15:33.213Z,5920
2017-06-01T05:17:59.365Z,6336
2017-06-01T05:20:25.599Z,6652
2017-06-01T05:22:51.966Z,6680
2017-06-01T05:25:18.419Z,7152
2017-06-01T05:27:44.873Z,7420
2017-06-01T05:30:11.420Z,7772
2017-06-01T05:32:37.990Z,8192
2017-06-01T05:35:04.628Z,8508
2017-06-01T05:37:31.294Z,8920
2017-06-01T05:39:49.450Z,9300
2017-06-01T05:42:16.413Z,9524
2017-06-01T05:46:54.298Z,10220
2017-06-01T05:49:22.081Z,10528
2017-06-01T05:51:48.962Z,10728
2017-06-01T05:54:16.862Z,11284
2017-06-01T05:58:46.384Z,11984
2017-06-01T06:01:14.364Z,12720
2017-06-01T06:03:42.335Z,14008
2017-06-01T06:06:09.400Z,14944
2017-06-01T06:08:36.443Z,17280
2017-06-01T06:11:03.522Z,19232
2017-06-01T06:13:32.629Z,20896
2017-06-01T06:16:00.818Z,22016
2017-06-01T06:18:34.620Z,21024
2017-06-01T06:21:01.750Z,10348
2017-06-01T06:23:29.770Z,8172
2017-06-01T06:25:57.518Z,11844
2017-06-01T06:28:23.966Z,15392
2017-06-01T06:30:50.395Z,12448
2017-06-01T06:33:07.974Z,8928
2017-06-01T06:35:33.954Z,7700
2017-06-01T06:37:59.878Z,6684
2017-06-01T06:40:17.136Z,6412
2017-06-01T06:42:42.867Z,6348
2017-06-01T06:45:08.377Z,5868
2017-06-01T06:47:33.848Z,5612
2017-06-01T06:49:59.245Z,5984
2017-06-01T06:52:24.659Z,7140
2017-06-01T06:54:49.962Z,8628
2017-06-01T06:57:15.251Z,10092
2017-06-01T06:59:40.449Z,9312
2017-06-01T07:02:05.677Z,13728
2017-06-01T07:04:30.884Z,12832
2017-06-01T07:06:56.202Z,12484
2017-06-01T07:09:21.545Z,11380
2017-06-01T07:11:46.956Z,11112
2017-06-01T07:14:12.482Z,12072
2017-06-01T07:16:38.024Z,13976
2017-06-01T07:19:03.523Z,16480
2017-06-01T07:21:14.383Z,17568
2017-06-01T07:23:40.932Z,18880
2017-06-01T07:26:06.445Z,19872
2017-06-01T07:28:31.962Z,20896
2017-06-01T07:30:57.486Z,23296
2017-06-01T07:33:23.034Z,0
2017-06-01T07:37:24.805Z,17568
2017-06-01T07:39:50.398Z,14032
2017-06-01T07:42:16.946Z,13244
2017-06-01T07:44:42.552Z,13088
2017-06-01T07:47:08.091Z,12804
2017-06-01T07:49:33.727Z,12668
2017-06-01T07:53:52.764Z,12652
2017-06-01T07:56:18.553Z,11672
2017-06-01T07:58:35.872Z,12428
2017-06-01T08:01:01.698Z,12676
2017-06-01T08:03:27.515Z,12248
2017-06-01T08:05:53.359Z,10268
2017-06-01T08:08:19.169Z,9168
2017-06-01T08:10:44.998Z,9920
2017-06-01T08:13:10.816Z,11640
2017-06-01T08:15:36.640Z,10352
2017-06-01T08:17:53.915Z,8528
2017-06-01T08:20:19.661Z,9520
2017-06-01T08:22:45.369Z,11596
2017-06-01T08:25:11.020Z,9868
2017-06-01T08:27:28.198Z,9704
2017-06-01T08:29:53.797Z,12348
2017-06-01T08:32:19.423Z,9808
2017-06-01T08:34:36.528Z,11472
2017-06-01T08:37:02.165Z,11900
2017-06-01T08:39:27.786Z,11880
2017-06-01T08:41:53.389Z,11228
2017-06-01T08:44:10.503Z,10660
2017-06-01T08:46:36.145Z,10128
2017-06-01T08:49:01.776Z,9440
2017-06-01T08:51:27.495Z,8632
2017-06-01T08:53:53.219Z,9140
2017-06-01T08:56:18.816Z,9056
2017-06-01T08:58:44.552Z,8348
2017-06-01T09:01:10.265Z,7300
2017-06-01T09:03:35.985Z,6512
2017-06-01T09:08:03.913Z,7700
2017-06-01T09:10:29.587Z,7044
2017-06-01T09:14:48.424Z,7388
2017-06-01T09:18:58.697Z,6608
2017-06-01T09:23:26.645Z,6504
2017-06-01T09:25:43.811Z,6392
2017-06-01T09:27:54.223Z,6392
2017-06-01T09:30:11.349Z,6444
2017-06-01T09:32:37.092Z,6344
2017-06-01T09:35:02.789Z,6020
2017-06-01T09:37:28.503Z,6316
2017-06-01T09:39:54.213Z,6292
2017-06-01T09:42:11.430Z,5740
2017-06-01T09:44:37.173Z,6140
2017-06-01T09:47:02.869Z,6232
2017-06-01T09:49:28.485Z,6028
2017-06-01T09:51:45.582Z,5776
2017-06-01T09:54:02.692Z,6048
2017-06-01T09:56:28.239Z,5952
2017-06-01T09:58:45.317Z,5972
2017-06-01T10:01:02.346Z,5896
2017-06-01T10:03:19.382Z,5672
2017-06-01T10:05:45.013Z,3428
2017-06-01T10:08:10.622Z,3308
2017-06-01T10:10:36.107Z,3412
2017-06-01T10:13:01.616Z,3344
2017-06-01T10:15:26.938Z,3300
2017-06-01T10:17:52.266Z,4032
2017-06-01T10:20:09.088Z,3120
2017-06-01T10:22:34.381Z,2996
2017-06-01T10:26:53.377Z,2908
2017-06-01T10:29:18.633Z,2936
2017-06-01T10:31:35.263Z,3020
2017-06-01T10:34:00.402Z,3144
2017-06-01T10:36:25.511Z,3332
2017-06-01T10:38:51.614Z,4820
2017-06-01T10:41:16.714Z,5008
2017-06-01T10:43:41.862Z,3844
2017-06-01T10:46:07.007Z,2928
2017-06-01T10:48:32.130Z,2632
2017-06-01T10:50:40.268Z,2708
2017-06-01T10:53:05.392Z,2768
2017-06-01T10:55:30.439Z,2804
2017-06-01T10:57:47.023Z,4336
2017-06-01T10:59:57.750Z,4036
2017-06-01T11:01:59.966Z,4100
2017-06-01T11:04:25.077Z,4032
2017-06-01T11:06:41.647Z,4212
2017-06-01T11:08:52.379Z,4144
2017-06-01T11:11:17.466Z,3972
2017-06-01T11:13:34.024Z,3640
2017-06-01T11:15:59.131Z,3908
2017-06-01T11:18:24.270Z,3824
2017-06-01T11:20:49.374Z,3780
2017-06-01T11:23:14.515Z,3468
2017-06-01T11:25:40.682Z,3404
2017-06-01T11:28:05.817Z,3428
2017-06-01T11:30:30.923Z,3404
2017-06-01T11:32:56.087Z,3580
2017-06-01T11:35:06.829Z,3408
2017-06-01T11:37:31.989Z,3460
2017-06-01T11:39:48.593Z,2468
2017-06-01T11:42:05.213Z,2524
2017-06-01T11:44:30.347Z,2960
2017-06-01T11:46:46.914Z,3212
2017-06-01T11:49:12.052Z,2748
2017-06-01T11:51:37.161Z,3244
2017-06-01T11:54:02.299Z,3124
2017-06-01T11:56:27.414Z,2624
2017-06-01T11:58:52.532Z,2624
2017-06-01T12:01:17.682Z,2968
2017-06-01T12:03:42.846Z,2340
2017-06-01T12:06:07.957Z,2268
2017-06-01T12:12:36.893Z,2272
2017-06-01T12:15:01.999Z,2248
2017-06-01T12:19:12.128Z,2216
2017-06-01T12:21:37.165Z,2180
2017-06-01T12:25:55.770Z,2172
2017-06-01T12:28:03.784Z,2292
2017-06-01T12:30:28.695Z,2748
2017-06-01T12:32:53.632Z,3192
2017-06-01T12:35:10.068Z,2644
2017-06-01T12:37:34.994Z,2708
2017-06-01T12:39:59.958Z,2664
2017-06-01T12:44:27.034Z,2548
2017-06-01T12:46:52.044Z,2536
2017-06-01T12:49:18.052Z,2080
2017-06-01T12:51:43.101Z,2316
2017-06-01T12:53:59.670Z,2408
2017-06-01T12:56:24.703Z,2380
2017-06-01T12:58:49.780Z,2276
2017-06-01T13:01:14.864Z,2196
2017-06-01T13:03:39.936Z,1928
2017-06-01T13:06:05.032Z,2112
2017-06-01T13:08:21.587Z,2100
2017-06-01T13:10:46.616Z,2116
2017-06-01T13:13:11.666Z,2148
2017-06-01T13:15:36.646Z,1600
2017-06-01T13:18:01.662Z,1600
2017-06-01T13:20:26.669Z,2060
2017-06-01T13:22:51.681Z,2144
2017-06-01T13:25:16.695Z,2196
2017-06-01T13:27:33.169Z,2296
2017-06-01T13:29:58.167Z,2300
2017-06-01T13:32:23.170Z,1820
2017-06-01T13:34:48.199Z,1788
2017-06-01T13:37:13.250Z,2240
2017-06-01T13:39:38.259Z,1872
2017-06-01T13:42:03.247Z,1848
2017-06-01T13:46:21.862Z,2000
2017-06-01T13:48:46.804Z,1940
2017-06-01T13:51:11.792Z,1944
2017-06-01T13:53:36.704Z,2068
2017-06-01T13:56:01.650Z,2080
2017-06-01T13:58:26.625Z,2084
2017-06-01T14:00:51.556Z,2128
2017-06-01T14:03:16.522Z,2212
2017-06-01T14:07:29.319Z,2476
2017-06-01T14:09:45.803Z,2488
2017-06-01T14:12:02.279Z,2524
2017-06-01T14:14:12.988Z,2592
2017-06-01T14:18:48.595Z,2444
2017-06-01T14:21:13.579Z,2596
2017-06-01T14:23:38.584Z,2564
2017-06-01T14:26:03.616Z,2700
2017-06-01T14:28:28.599Z,2584
2017-06-01T14:30:53.624Z,2528
2017-06-01T14:33:18.678Z,2476
2017-06-01T14:37:37.352Z,2488
2017-06-01T14:40:02.403Z,2700
2017-06-01T14:42:27.481Z,2496
2017-06-01T14:44:52.570Z,2508
2017-06-01T14:47:17.591Z,2608
2017-06-01T14:49:42.630Z,2468
2017-06-01T14:52:07.678Z,2380
2017-06-01T14:54:32.737Z,2392
2017-06-01T14:56:57.807Z,2484
2017-06-01T14:59:22.842Z,2616
2017-06-01T15:01:39.437Z,2476
2017-06-01T15:04:04.519Z,2468
2017-06-01T15:06:29.535Z,2412
2017-06-01T15:08:40.281Z,2352
2017-06-01T15:11:05.358Z,2504
2017-06-01T15:13:30.424Z,2396
2017-06-01T15:15:55.473Z,2336
2017-06-01T15:18:20.526Z,2284
2017-06-01T15:20:45.558Z,2116
2017-06-01T15:23:02.126Z,2048
2017-06-01T15:25:18.688Z,2140
2017-06-01T15:27:43.740Z,1952
2017-06-01T15:30:08.792Z,1964
2017-06-01T15:32:33.839Z,1936
2017-06-01T15:34:58.854Z,1892
2017-06-01T15:37:23.860Z,1760
2017-06-01T15:39:49.855Z,1708
2017-06-01T15:42:14.845Z,1680
2017-06-01T15:44:31.343Z,1524
2017-06-01T15:46:56.320Z,1552
2017-06-01T15:49:21.278Z,1492
2017-06-01T15:55:50.437Z,1460
2017-06-01T15:58:15.418Z,1444
2017-06-01T16:00:40.362Z,1356
2017-06-01T16:03:05.270Z,1376
2017-06-01T16:05:30.235Z,1400
2017-06-01T16:07:46.675Z,1236
2017-06-01T16:10:11.646Z,1284
2017-06-01T16:12:36.619Z,1280
2017-06-01T16:15:01.589Z,1232
2017-06-01T16:17:18.060Z,1236
2017-06-01T16:21:45.088Z,1224
2017-06-01T16:24:01.532Z,1292
2017-06-01T16:26:26.431Z,1296
2017-06-01T16:28:51.312Z,1292
2017-06-01T16:31:16.215Z,1188
2017-06-01T16:33:32.649Z,1176
2017-06-01T16:35:57.585Z,1180
2017-06-01T16:38:13.982Z,1252
2017-06-01T16:42:32.496Z,1204
2017-06-01T16:44:57.453Z,1112
2017-06-01T16:47:22.367Z,1096
2017-06-01T16:49:47.223Z,1112
2017-06-01T16:52:12.128Z,1144
2017-06-01T16:54:36.990Z,1140
2017-06-01T16:58:38.224Z,1128
2017-06-01T17:00:54.618Z,1156
2017-06-01T17:03:19.493Z,1136
2017-06-01T17:05:44.341Z,1188
2017-06-01T17:08:09.176Z,1264
2017-06-01T17:10:33.936Z,1264
2017-06-01T17:12:58.741Z,1264
2017-06-01T17:15:23.537Z,1284
2017-06-01T17:17:39.857Z,1268
2017-06-01T17:20:04.711Z,1268
2017-06-01T17:22:29.543Z,1264
2017-06-01T17:24:54.418Z,1256
2017-06-01T17:27:19.229Z,1240
2017-06-01T17:29:44.059Z,1192
2017-06-01T17:32:08.948Z,1184
2017-06-01T17:34:33.827Z,1172
2017-06-01T17:36:58.706Z,1140
2017-06-01T17:39:09.387Z,1088
2017-06-01T17:41:34.240Z,1068
2017-06-01T17:43:50.616Z,1072
2017-06-01T17:46:15.457Z,1056
2017-06-01T17:48:40.293Z,1032
2017-06-01T17:50:48.112Z,992
2017-06-01T17:53:12.878Z,992
2017-06-01T17:57:39.897Z,960
2017-06-01T18:00:04.784Z,916
2017-06-01T18:02:29.676Z,892
2017-06-01T18:04:38.534Z,864
2017-06-01T18:07:03.382Z,820
2017-06-01T18:09:31.209Z,784
2017-06-01T18:11:53.230Z,756
2017-06-01T18:14:17.956Z,728
2017-06-01T18:16:42.741Z,708
2017-06-01T18:18:59.015Z,672
2017-06-01T18:21:06.843Z,648
2017-06-01T18:23:31.627Z,620
2017-06-01T18:25:56.360Z,596
2017-06-01T18:28:12.592Z,552
2017-06-01T18:30:37.333Z,540
2017-06-01T18:33:02.048Z,508
2017-06-01T18:35:26.747Z,488
2017-06-01T18:37:42.986Z,464
2017-06-01T18:42:09.735Z,420
2017-06-01T18:44:34.454Z,396
2017-06-01T18:46:59.160Z,360
2017-06-01T18:49:15.394Z,344
2017-06-01T18:51:26.038Z,316
2017-06-01T18:53:50.753Z,296
2017-06-01T18:56:15.398Z,272
2017-06-01T18:58:31.609Z,244
2017-06-01T19:00:56.306Z,224
2017-06-01T19:03:04.059Z,204
2017-06-01T19:05:28.769Z,184
2017-06-01T19:07:53.447Z,160
2017-06-01T19:10:18.069Z,140
2017-06-01T19:12:42.710Z,124
2017-06-01T19:15:07.345Z,104
2017-06-01T19:17:31.980Z,84
2017-06-01T19:19:56.619Z,64
2017-06-01T19:22:12.763Z,56
2017-06-01T19:24:23.372Z,40
2017-06-01T19:26:48.056Z,32
2017-06-01T19:29:04.213Z,24
2017-06-01T19:31:28.810Z,20
2017-06-01T19:33:53.410Z,16
2017-06-01T19:35:55.529Z,12
2017-06-01T19:38:20.171Z,8
2017-06-01T19:40:30.734Z,8
2017-06-01T19:42:55.303Z,4
2017-06-01T19:45:19.847Z,0
2017-06-01T19:47:44.387Z,4
2017-06-01T19:50:08.966Z,0
2017-06-01T19:52:33.605Z,0
2017-06-01T19:54:58.188Z,0
2017-06-01T19:57:22.706Z,0
2017-06-01T19:59:47.289Z,0
2017-06-01T20:02:11.824Z,0
2017-06-01T20:06:38.409Z,0
2017-06-01T20:09:03.004Z,0
2017-06-01T20:11:27.550Z,0
2017-06-01T20:13:52.093Z,0
2017-06-01T20:18:18.641Z,0
2017-06-01T20:20:43.194Z,0
2017-06-01T20:22:45.270Z,0
2017-06-01T20:25:09.782Z,0
2017-06-01T20:27:34.320Z,0
2017-06-01T20:29:58.863Z,0
2017-06-01T20:32:23.394Z,0
2017-06-01T20:34:47.909Z,0
2017-06-01T20:37:12.376Z,0
2017-06-01T20:39:36.896Z,0
2017-06-01T20:42:01.399Z,0
2017-06-01T20:44:25.906Z,0
2017-06-01T20:46:50.408Z,0
2017-06-01T20:48:57.983Z,0
2017-06-01T20:51:22.472Z,0
2017-06-01T20:55:48.920Z,0
2017-06-01T20:58:13.415Z,0
2017-06-01T21:00:37.921Z,0
2017-06-01T21:03:02.371Z,0
2017-06-01T21:05:26.887Z,0
2017-06-01T21:07:51.373Z,0
2017-06-01T21:10:15.834Z,0
2017-06-01T21:12:26.410Z,0
2017-06-01T21:14:42.456Z,0
2017-06-01T21:16:58.452Z,0
2017-06-01T21:19:22.869Z,0
2017-06-01T21:21:47.295Z,0
2017-06-01T21:24:11.752Z,0
2017-06-01T21:26:27.730Z,0
2017-06-01T21:28:43.729Z,0
2017-06-01T21:31:08.212Z,0
2017-06-01T21:33:32.729Z,0
2017-06-01T21:35:48.772Z,0
2017-06-01T21:38:04.752Z,0
2017-06-01T21:40:20.755Z,0
2017-06-01T21:42:45.212Z,0
2017-06-01T21:45:11.814Z,0
2017-06-01T21:47:36.226Z,0
2017-06-01T21:50:00.735Z,0
2017-06-01T21:52:08.356Z,0
2017-06-01T21:54:32.802Z,0
2017-06-01T21:56:57.304Z,0
2017-06-01T21:59:21.798Z,0
2017-06-01T22:01:46.268Z,0
2017-06-01T22:04:02.270Z,0
2017-06-01T22:08:28.220Z,0
2017-06-01T22:10:52.710Z,0
2017-06-01T22:13:17.188Z,0
2017-06-01T22:15:41.678Z,0
2017-06-01T22:20:07.554Z,0
2017-06-01T22:22:32.021Z,0
2017-06-01T22:26:50.607Z,0
2017-06-01T22:29:15.011Z,0
2017-06-01T22:31:39.457Z,0
2017-06-01T22:34:03.851Z,0
2017-06-01T22:36:19.889Z,0
2017-06-01T22:38:44.336Z,0
2017-06-01T22:41:09.741Z,0
2017-06-01T22:43:34.231Z,0
2017-06-01T22:45:58.737Z,0
2017-06-01T22:48:14.745Z,0
2017-06-01T22:50:30.655Z,0
2017-06-01T22:52:54.992Z,0
2017-06-01T22:55:19.398Z,0
2017-06-01T22:59:45.724Z,0
2017-06-01T23:02:10.125Z,0
2017-06-01T23:04:34.509Z,0
2017-06-01T23:06:58.908Z,0
2017-06-01T23:09:23.295Z,0
2017-06-01T23:11:33.309Z,0
2017-06-01T23:13:57.724Z,0
2017-06-01T23:16:22.126Z,0
2017-06-01T23:18:38.057Z,0
2017-06-01T23:21:02.507Z,0
2017-06-01T23:23:26.882Z,0
2017-06-01T23:25:51.269Z,0
2017-06-01T23:28:15.659Z,0
2017-06-01T23:30:31.536Z,0
2017-06-01T23:32:55.949Z,0
2017-06-01T23:37:21.759Z,0
2017-06-01T23:39:29.260Z,0
2017-06-01T23:41:54.329Z,0
2017-06-01T23:44:17.949Z,0
2017-06-01T23:46:42.340Z,0
2017-06-01T23:49:06.727Z,0
2017-06-01T23:51:31.117Z,0
2017-06-01T23:53:55.422Z,0
2017-06-01T23:56:19.805Z,0
2017-06-01T23:58:29.887Z,0
